06.01.2019 Boeing 737-8F2 Turkish Airlines выкатился в аэропорту Львов

Информация из открытых источников. Ассоциация «Аэропорт» ГА и владелец сайта не несут ответственности за полноту и корректность информации.
Date:06-JAN-2019
Time:08:25 UTC
Type:Boeing 737-8F2
Owner/operator:THY Turkish Airlines
Registration:TC-JVI
C/n / msn:60013/5754
Fatalities:Fatalities: 0 / Occupants: 65
Other fatalities:0
Aircraft damage:Unknown
Location:Lviv Danylo Halytskyi International Airport (LWO/UKLL) — Ukraine
Phase:Taxi
Nature:International Scheduled Passenger
Departure airport:Lviv-Danylo Halytskyi International Airport (LWO/UKLL)
Destination airport:Istanbul-Atatürk International Airport (IST/LTBA)

Narrative:
Turkish Airlines flight TK442, a Boeing 737-800, ran off the runway at Lviv Airport, Ukraine, while back-tracking for departure. The aircraft became disabled in the snow, forcing incoming flights to divert. 

Weather at the time of the incident (0825Z): 
UKLL 060830Z 33007MPS 2900 -SN OVC014 M06/M09 Q1014 R31/590326 TEMPO 2100 -FZRASN BKN007 BKN020CB

Sources:

https://aviation-safety.net/wikibase/wiki.php?id=220587
https://www.flightradar24.com/data/flights/tk442#1f180eab


Добавить комментарий

Ваш адрес email не будет опубликован. Обязательные поля помечены *

Этот сайт использует Akismet для борьбы со спамом. Узнайте как обрабатываются ваши данные комментариев.